Time;durP1;ratioP1;P1;durP2;ratioP2;P2;SDS_P1;SDS_P2;PMS_P1;PMS_P2;Temp;Humidity;BMP_temperature;BMP_pressure;BME280_temperature;BME280_humidity;BME280_pressure;Samples;Min_cycle;Max_cycle;Signal;HPM_P1;HPM_P2
2021/10/15 00:00:36;;;;;;;34.03;15.80;;;;;;;;;;5012072;28;20076;-75
2021/10/15 00:03:01;;;;;;;39.37;16.07;;;;;;;;;;5012384;28;20022;-73
2021/10/15 00:05:28;;;;;;;39.07;17.20;;;;;;;;;;5013182;28;20040;-75
2021/10/15 00:07:54;;;;;;;31.27;14.53;;;;;;;;;;5013331;28;20073;-74
2021/10/15 00:10:20;;;;;;;34.03;15.60;;;;;;;;;;5013156;28;20445;-73
2021/10/15 00:12:46;;;;;;;35.10;16.70;;;;;;;;;;5013527;28;20470;-74
2021/10/15 00:15:12;;;;;;;36.60;16.57;;;;;;;;;;5013346;28;20032;-73
2021/10/15 00:17:37;;;;;;;35.40;15.13;;;;;;;;;;5013022;28;20042;-73
2021/10/15 00:20:04;;;;;;;34.40;15.70;;;;;;;;;;5013537;28;20040;-73
2021/10/15 00:22:30;;;;;;;38.70;16.50;;;;;;;;;;5012986;28;20425;-74
2021/10/15 00:24:55;;;;;;;33.77;14.90;;;;;;;;;;5011640;28;20036;-74
2021/10/15 00:27:21;;;;;;;35.80;15.10;;;;;;;;;;5011151;28;20104;-74
2021/10/15 00:29:46;;;;;;;30.83;15.13;;;;;;;;;;5013123;28;20038;-74
2021/10/15 00:32:11;;;;;;;37.20;16.40;;;;;;;;;;5013079;28;20458;-74
2021/10/15 00:34:39;;;;;;;39.63;16.47;;;;;;;;;;5012764;28;20034;-74
2021/10/15 00:37:05;;;;;;;36.83;16.30;;;;;;;;;;5013163;28;20026;-73
2021/10/15 00:39:31;;;;;;;39.67;16.43;;;;;;;;;;5012869;28;20041;-73
2021/10/15 00:41:56;;;;;;;35.27;15.83;;;;;;;;;;5013505;28;20025;-73
2021/10/15 00:44:22;;;;;;;42.73;17.13;;;;;;;;;;5011388;28;20041;-73
2021/10/15 00:46:48;;;;;;;38.73;17.70;;;;;;;;;;5011463;28;20034;-73
2021/10/15 00:49:14;;;;;;;37.33;16.10;;;;;;;;;;5012955;28;20036;-73
2021/10/15 00:51:42;;;;;;;40.73;16.93;;;;;;;;;;5012644;28;20033;-73
2021/10/15 00:54:10;;;;;;;38.17;18.03;;;;;;;;;;5012899;28;20139;-73
2021/10/15 00:56:35;;;;;;;45.20;18.93;;;;;;;;;;5027714;28;20037;-74
2021/10/15 00:59:01;;;;;;;44.00;17.50;;;;;;;;;;5012765;28;20538;-73
2021/10/15 01:01:27;;;;;;;45.67;17.97;;;;;;;;;;5011034;28;20022;-73
2021/10/15 01:03:53;;;;;;;43.90;17.53;;;;;;;;;;5012434;28;20056;-75
2021/10/15 01:06:19;;;;;;;42.73;17.30;;;;;;;;;;5012550;28;20040;-75
2021/10/15 01:08:46;;;;;;;40.63;17.80;;;;;;;;;;4994466;28;20091;-73
2021/10/15 01:11:16;;;;;;;41.33;18.47;;;;;;;;;;4994848;28;20133;-74
2021/10/15 01:13:42;;;;;;;38.90;16.97;;;;;;;;;;5012166;28;20033;-74
2021/10/15 01:16:10;;;;;;;48.93;18.77;;;;;;;;;;5010804;28;20084;-73
2021/10/15 01:18:37;;;;;;;39.00;16.40;;;;;;;;;;5011160;28;20108;-74
2021/10/15 01:21:04;;;;;;;48.27;19.10;;;;;;;;;;5011896;28;20076;-74
2021/10/15 01:23:30;;;;;;;45.03;18.37;;;;;;;;;;5010645;28;20034;-75
2021/10/15 01:25:56;;;;;;;42.70;19.03;;;;;;;;;;5012191;28;20096;-75
2021/10/15 01:28:23;;;;;;;40.90;17.73;;;;;;;;;;5011744;28;20413;-74
2021/10/15 01:30:49;;;;;;;47.40;18.80;;;;;;;;;;5012128;28;20053;-74
2021/10/15 01:33:15;;;;;;;42.80;18.70;;;;;;;;;;5012098;28;20108;-74
2021/10/15 01:35:41;;;;;;;45.57;18.73;;;;;;;;;;5011701;28;20117;-73
2021/10/15 01:38:07;;;;;;;44.23;18.27;;;;;;;;;;5012026;28;20026;-72
2021/10/15 01:40:33;;;;;;;43.33;18.17;;;;;;;;;;5010118;28;20037;-73
2021/10/15 01:42:59;;;;;;;42.07;18.13;;;;;;;;;;5012795;28;20124;-73
2021/10/15 01:45:27;;;;;;;42.03;17.60;;;;;;;;;;5011783;28;20033;-74
2021/10/15 01:47:53;;;;;;;51.83;18.30;;;;;;;;;;5011804;28;20060;-74
2021/10/15 01:50:19;;;;;;;51.57;18.97;;;;;;;;;;5011811;28;20037;-74
2021/10/15 01:52:47;;;;;;;47.00;19.10;;;;;;;;;;5011348;28;20128;-73
2021/10/15 01:55:13;;;;;;;51.60;19.53;;;;;;;;;;5010076;28;20183;-74
2021/10/15 01:57:39;;;;;;;49.10;18.53;;;;;;;;;;5011238;28;20465;-74
2021/10/15 02:00:07;;;;;;;48.77;19.47;;;;;;;;;;5009827;28;20029;-74
2021/10/15 02:02:33;;;;;;;45.43;19.67;;;;;;;;;;5011007;28;20034;-74
2021/10/15 02:04:58;;;;;;;51.95;18.55;;;;;;;;;;5010972;28;20041;-74
2021/10/15 02:07:24;;;;;;;48.67;20.03;;;;;;;;;;5011556;28;20058;-72
2021/10/15 02:09:49;;;;;;;46.80;19.50;;;;;;;;;;5011003;28;20107;-73
2021/10/15 02:12:15;;;;;;;51.53;18.70;;;;;;;;;;5010814;28;20093;-73
2021/10/15 02:14:41;;;;;;;55.07;19.20;;;;;;;;;;5010722;28;20040;-74
2021/10/15 02:17:06;;;;;;;51.83;20.17;;;;;;;;;;5025981;28;20042;-73
2021/10/15 02:19:32;;;;;;;50.37;19.83;;;;;;;;;;5010051;28;20030;-74
2021/10/15 02:21:57;;;;;;;50.30;19.37;;;;;;;;;;5009748;28;20037;-74
2021/10/15 02:24:23;;;;;;;44.57;19.23;;;;;;;;;;5009549;28;20029;-74
2021/10/15 02:26:49;;;;;;;52.90;19.90;;;;;;;;;;5009429;28;20026;-75
2021/10/15 02:29:15;;;;;;;47.87;20.33;;;;;;;;;;5009567;28;20463;-74
2021/10/15 02:31:40;;;;;;;52.77;20.13;;;;;;;;;;5009149;28;20033;-74
2021/10/15 02:34:06;;;;;;;54.30;20.20;;;;;;;;;;5010938;28;20044;-75
2021/10/15 02:36:31;;;;;;;45.20;19.00;;;;;;;;;;5010633;28;20033;-73
2021/10/15 02:38:57;;;;;;;48.53;18.20;;;;;;;;;;5009738;28;20030;-72
2021/10/15 02:41:23;;;;;;;45.77;17.67;;;;;;;;;;5025618;28;20045;-74
2021/10/15 02:43:48;;;;;;;48.23;19.73;;;;;;;;;;5010600;28;20323;-74
2021/10/15 02:46:15;;;;;;;44.27;17.50;;;;;;;;;;5009668;28;20087;-73
2021/10/15 02:48:40;;;;;;;48.10;18.67;;;;;;;;;;5010496;28;20075;-74
2021/10/15 02:51:06;;;;;;;49.83;19.40;;;;;;;;;;5010399;28;20340;-72
2021/10/15 02:53:32;;;;;;;52.60;18.40;;;;;;;;;;5010605;28;20443;-74
2021/10/15 02:55:57;;;;;;;46.07;18.17;;;;;;;;;;5010647;28;20034;-74
2021/10/15 02:58:22;;;;;;;47.13;19.80;;;;;;;;;;5010709;28;20087;-74
2021/10/15 03:00:50;;;;;;;49.67;19.40;;;;;;;;;;5008970;28;20649;-73
2021/10/15 03:03:16;;;;;;;47.13;18.57;;;;;;;;;;5011340;28;20033;-71
2021/10/15 03:05:42;;;;;;;51.70;20.77;;;;;;;;;;5026006;28;20034;-71
2021/10/15 03:08:08;;;;;;;51.73;19.67;;;;;;;;;;5010765;28;20030;-71
2021/10/15 03:10:33;;;;;;;45.80;19.00;;;;;;;;;;5009341;28;20029;-72
2021/10/15 03:12:59;;;;;;;52.20;20.07;;;;;;;;;;5010780;28;20032;-72
2021/10/15 03:15:24;;;;;;;52.20;20.40;;;;;;;;;;5008742;28;20026;-71
2021/10/15 03:17:50;;;;;;;55.83;21.67;;;;;;;;;;5010210;28;20534;-71
2021/10/15 03:20:15;;;;;;;61.87;22.63;;;;;;;;;;5010197;28;20057;-71
2021/10/15 03:22:41;;;;;;;56.63;19.33;;;;;;;;;;5010027;28;20097;-72
2021/10/15 03:25:08;;;;;;;60.37;22.00;;;;;;;;;;5010127;28;20057;-72
2021/10/15 03:27:34;;;;;;;52.60;20.60;;;;;;;;;;5008330;28;20054;-72
2021/10/15 03:29:59;;;;;;;54.27;20.57;;;;;;;;;;5008637;28;20030;-71
2021/10/15 03:32:25;;;;;;;52.60;20.70;;;;;;;;;;5009537;28;20021;-72
2021/10/15 03:34:50;;;;;;;55.90;20.37;;;;;;;;;;5009670;28;20029;-71
2021/10/15 03:37:16;;;;;;;57.53;23.43;;;;;;;;;;5009917;28;20180;-71
2021/10/15 03:39:41;;;;;;;62.23;23.07;;;;;;;;;;5009990;28;20042;-72
2021/10/15 03:42:07;;;;;;;57.20;21.27;;;;;;;;;;5009997;28;20033;-70
2021/10/15 03:44:33;;;;;;;66.30;22.20;;;;;;;;;;5009612;28;20045;-71
2021/10/15 03:46:58;;;;;;;60.63;22.07;;;;;;;;;;5009793;28;20026;-71
2021/10/15 03:49:24;;;;;;;59.67;22.48;;;;;;;;;;5008462;28;20061;-70
2021/10/15 03:51:50;;;;;;;59.53;22.00;;;;;;;;;;5009418;28;20498;-72
2021/10/15 03:54:15;;;;;;;62.30;23.53;;;;;;;;;;5009580;28;20041;-72
2021/10/15 03:56:41;;;;;;;52.70;21.77;;;;;;;;;;5009796;28;20033;-72
2021/10/15 03:59:06;;;;;;;55.83;20.60;;;;;;;;;;5009594;28;20525;-72
2021/10/15 04:01:32;;;;;;;57.03;21.52;;;;;;;;;;5009596;28;20053;-72
2021/10/15 04:03:57;;;;;;;61.67;22.53;;;;;;;;;;5009586;28;20072;-72
2021/10/15 04:06:23;;;;;;;54.47;20.60;;;;;;;;;;5009799;28;20087;-72
2021/10/15 04:08:48;;;;;;;60.43;21.60;;;;;;;;;;5009427;28;20080;-70
2021/10/15 04:11:16;;;;;;;62.37;21.93;;;;;;;;;;5009715;28;20363;-72
2021/10/15 04:13:41;;;;;;;59.88;21.33;;;;;;;;;;5016045;28;20033;-72
2021/10/15 04:16:07;;;;;;;59.23;20.03;;;;;;;;;;5004137;28;20117;-71
2021/10/15 04:18:32;;;;;;;57.75;22.30;;;;;;;;;;5023832;28;20045;-72
2021/10/15 04:20:58;;;;;;;58.80;20.63;;;;;;;;;;5029199;28;20397;-73
2021/10/15 04:23:24;;;;;;;55.03;20.63;;;;;;;;;;5009073;28;20064;-71
2021/10/15 04:25:51;;;;;;;56.93;20.53;;;;;;;;;;5011405;28;20483;-71
2021/10/15 04:28:18;;;;;;;67.60;22.87;;;;;;;;;;5028117;28;20136;-71
2021/10/15 04:30:44;;;;;;;57.23;20.43;;;;;;;;;;5028410;28;20040;-71
2021/10/15 04:33:10;;;;;;;59.97;20.37;;;;;;;;;;5025166;28;20014;-72
2021/10/15 04:35:37;;;;;;;62.23;21.47;;;;;;;;;;5021462;28;20044;-71
2021/10/15 04:38:03;;;;;;;67.20;22.40;;;;;;;;;;5016283;28;20057;-73
2021/10/15 04:40:28;;;;;;;61.30;20.27;;;;;;;;;;5035422;28;20527;-71
2021/10/15 04:42:54;;;;;;;62.40;21.43;;;;;;;;;;5030164;28;20116;-74
2021/10/15 04:45:19;;;;;;;63.63;21.13;;;;;;;;;;5027642;28;20045;-71
2021/10/15 04:47:45;;;;;;;62.73;20.23;;;;;;;;;;5014649;28;20096;-72
2021/10/15 04:50:11;;;;;;;63.47;20.70;;;;;;;;;;5020221;28;20030;-71
2021/10/15 04:52:36;;;;;;;69.43;22.83;;;;;;;;;;5011701;28;20060;-73
2021/10/15 04:55:02;;;;;;;60.73;19.83;;;;;;;;;;4995329;28;20362;-72
2021/10/15 04:57:28;;;;;;;58.27;19.67;;;;;;;;;;5019470;28;20029;-71
2021/10/15 04:59:53;;;;;;;61.40;21.53;;;;;;;;;;5025912;28;20033;-72
2021/10/15 05:02:19;;;;;;;64.93;22.33;;;;;;;;;;5027832;28;20026;-73
2021/10/15 05:04:45;;;;;;;66.13;20.53;;;;;;;;;;5031952;28;20047;-72
2021/10/15 05:07:10;;;;;;;58.73;20.23;;;;;;;;;;5023196;28;20488;-73
2021/10/15 05:09:36;;;;;;;68.53;23.20;;;;;;;;;;5013679;28;20044;-73
2021/10/15 05:12:05;;;;;;;66.70;20.70;;;;;;;;;;5016561;28;20021;-72
2021/10/15 05:14:34;;;;;;;64.10;21.07;;;;;;;;;;5032340;28;20025;-72
2021/10/15 05:17:01;;;;;;;62.03;21.20;;;;;;;;;;5032138;28;20036;-72
2021/10/15 05:19:27;;;;;;;64.37;20.80;;;;;;;;;;5024663;28;20057;-73
2021/10/15 05:21:52;;;;;;;66.97;22.03;;;;;;;;;;5020880;28;20057;-73
2021/10/15 05:24:18;;;;;;;64.30;21.23;;;;;;;;;;5016629;28;20523;-73
2021/10/15 05:26:43;;;;;;;70.03;22.83;;;;;;;;;;5012881;28;20461;-72
2021/10/15 05:29:09;;;;;;;63.57;21.43;;;;;;;;;;5017256;28;20432;-72
2021/10/15 05:31:34;;;;;;;62.27;21.43;;;;;;;;;;5014327;28;20092;-73
2021/10/15 05:34:00;;;;;;;70.10;23.87;;;;;;;;;;5024870;28;20485;-71
2021/10/15 05:36:25;;;;;;;64.97;22.50;;;;;;;;;;5015297;28;20157;-72
2021/10/15 05:38:51;;;;;;;69.20;23.23;;;;;;;;;;5027252;28;20124;-73
2021/10/15 05:41:16;;;;;;;63.20;20.50;;;;;;;;;;5027297;28;20037;-72
2021/10/15 05:43:42;;;;;;;64.77;23.40;;;;;;;;;;5028650;28;20037;-74
2021/10/15 05:46:07;;;;;;;58.93;21.50;;;;;;;;;;5025441;28;20037;-72
2021/10/15 05:48:33;;;;;;;71.60;22.57;;;;;;;;;;5022362;28;20509;-75
2021/10/15 05:50:59;;;;;;;69.60;21.67;;;;;;;;;;5017243;28;20045;-72
2021/10/15 05:53:25;;;;;;;64.40;20.10;;;;;;;;;;5022850;28;20059;-71
2021/10/15 06:01:11;;;;;;;65.17;21.77;;;;;;;;;;5022310;28;20078;-72
2021/10/15 06:03:37;;;;;;;76.67;22.80;;;;;;;;;;5021667;28;20392;-71
2021/10/15 06:14:33;;;;;;;58.88;21.15;;;;;;;;;;5027463;28;20040;-72
2021/10/15 06:17:11;;;;;;;67.47;22.40;;;;;;;;;;5020171;28;20482;-72
2021/10/15 06:22:17;;;;;;;64.72;21.92;;;;;;;;;;5019479;28;20037;-73
2021/10/15 06:24:43;;;;;;;65.20;22.80;;;;;;;;;;5018251;28;20588;-73
2021/10/15 06:27:08;;;;;;;69.18;23.50;;;;;;;;;;5016304;28;20057;-74
2021/10/15 06:29:34;;;;;;;58.27;21.27;;;;;;;;;;5022072;28;20034;-73
2021/10/15 06:32:00;;;;;;;67.63;22.42;;;;;;;;;;5010585;28;20128;-73
2021/10/15 06:34:26;;;;;;;59.58;21.45;;;;;;;;;;5026691;28;20054;-72
2021/10/15 06:36:51;;;;;;;58.22;23.63;;;;;;;;;;5016227;28;20712;-74
2021/10/15 06:39:16;;;;;;;56.25;20.20;;;;;;;;;;5004772;28;20061;-72
2021/10/15 06:41:42;;;;;;;61.08;19.83;;;;;;;;;;5040823;28;20060;-73
2021/10/15 06:44:08;;;;;;;59.08;20.48;;;;;;;;;;5043131;28;20444;-73
2021/10/15 06:46:33;;;;;;;64.93;21.08;;;;;;;;;;5037421;28;20175;-74
2021/10/15 06:48:59;;;;;;;81.30;32.47;;;;;;;;;;5037805;28;20037;-75
2021/10/15 06:51:24;;;;;;;70.60;26.30;;;;;;;;;;5037672;28;20055;-75
2021/10/15 06:53:50;;;;;;;57.35;21.92;;;;;;;;;;5037188;28;20037;-74
2021/10/15 06:56:15;;;;;;;62.70;20.52;;;;;;;;;;5037815;28;20133;-73
2021/10/15 06:58:41;;;;;;;55.72;19.65;;;;;;;;;;5034257;28;20067;-71
2021/10/15 07:01:07;;;;;;;57.17;20.65;;;;;;;;;;5036844;28;20029;-72
2021/10/15 07:03:32;;;;;;;55.63;20.20;;;;;;;;;;5036806;28;20041;-73
2021/10/15 07:05:58;;;;;;;55.17;21.95;;;;;;;;;;5040192;28;20037;-73
2021/10/15 07:08:24;;;;;;;59.08;21.05;;;;;;;;;;5022411;28;20211;-72
2021/10/15 07:10:49;;;;;;;58.35;19.13;;;;;;;;;;5038911;28;20523;-71
2021/10/15 07:13:16;;;;;;;124.47;57.03;;;;;;;;;;5033068;28;20077;-74
2021/10/15 07:15:43;;;;;;;60.83;21.38;;;;;;;;;;5033885;28;20029;-72
2021/10/15 07:18:10;;;;;;;52.70;19.27;;;;;;;;;;5035542;28;20040;-73
2021/10/15 07:20:36;;;;;;;53.40;20.63;;;;;;;;;;5035062;28;20103;-74
2021/10/15 07:23:02;;;;;;;59.58;20.13;;;;;;;;;;5035725;28;20033;-73
2021/10/15 07:25:28;;;;;;;44.85;16.77;;;;;;;;;;5038232;28;20091;-72
2021/10/15 07:27:53;;;;;;;52.75;20.33;;;;;;;;;;5036229;28;20056;-73
2021/10/15 07:30:19;;;;;;;49.22;17.60;;;;;;;;;;5037655;28;20044;-72
2021/10/15 07:32:45;;;;;;;47.63;18.98;;;;;;;;;;5033984;28;20538;-74
2021/10/15 07:35:11;;;;;;;42.13;16.30;;;;;;;;;;5001556;28;20053;-72
2021/10/15 07:37:37;;;;;;;44.70;15.98;;;;;;;;;;5021642;28;20056;-72
2021/10/15 07:40:04;;;;;;;38.30;15.30;;;;;;;;;;5020481;28;20033;-73
2021/10/15 07:42:33;;;;;;;42.20;15.88;;;;;;;;;;5018498;28;20037;-73
2021/10/15 07:44:59;;;;;;;47.72;16.70;;;;;;;;;;5017844;28;20037;-73
2021/10/15 07:47:24;;;;;;;45.63;15.57;;;;;;;;;;5021026;28;20041;-73
2021/10/15 07:49:50;;;;;;;41.67;16.30;;;;;;;;;;5019287;28;20040;-71
2021/10/15 07:52:15;;;;;;;41.70;16.88;;;;;;;;;;5020587;28;20091;-72
2021/10/15 07:54:42;;;;;;;37.05;16.13;;;;;;;;;;5020969;28;20053;-72
2021/10/15 07:57:11;;;;;;;41.10;16.80;;;;;;;;;;5021404;28;20113;-71
2021/10/15 07:59:38;;;;;;;41.70;17.35;;;;;;;;;;5022210;28;20045;-73
2021/10/15 08:02:04;;;;;;;36.30;15.57;;;;;;;;;;5024302;28;20085;-73
2021/10/15 08:04:29;;;;;;;37.35;14.63;;;;;;;;;;5027863;28;20021;-75
2021/10/15 08:06:55;;;;;;;57.00;19.20;;;;;;;;;;5023831;28;20377;-72
2021/10/15 08:09:20;;;;;;;44.70;14.30;;;;;;;;;;5021263;28;20037;-74
2021/10/15 08:11:47;;;;;;;35.85;15.02;;;;;;;;;;5025734;28;20100;-73
2021/10/15 08:14:12;;;;;;;36.55;15.07;;;;;;;;;;5019248;28;20025;-72
2021/10/15 08:16:38;;;;;;;34.80;14.25;;;;;;;;;;5018892;28;20047;-73
2021/10/15 08:19:03;;;;;;;40.47;16.17;;;;;;;;;;5021427;28;20025;-73
2021/10/15 08:21:30;;;;;;;36.63;12.48;;;;;;;;;;5022644;28;20084;-73
2021/10/15 08:23:56;;;;;;;38.03;15.63;;;;;;;;;;5025573;28;20041;-72
2021/10/15 08:26:22;;;;;;;29.73;12.98;;;;;;;;;;5022219;28;20064;-71
2021/10/15 08:28:47;;;;;;;37.53;12.30;;;;;;;;;;5023284;28;20069;-73
2021/10/15 08:31:16;;;;;;;35.88;12.38;;;;;;;;;;5002935;28;20042;-73
2021/10/15 08:33:42;;;;;;;30.50;12.02;;;;;;;;;;5024261;28;20029;-72
2021/10/15 08:36:08;;;;;;;34.00;11.45;;;;;;;;;;5019289;28;20029;-73
2021/10/15 08:38:34;;;;;;;29.08;13.60;;;;;;;;;;5026017;28;20130;-73
2021/10/15 08:40:59;;;;;;;32.72;14.23;;;;;;;;;;5022168;28;20025;-74
2021/10/15 08:43:37;;;;;;;27.13;10.95;;;;;;;;;;5022839;28;20022;-72
2021/10/15 08:46:03;;;;;;;31.73;10.32;;;;;;;;;;5021891;28;20072;-74
2021/10/15 08:48:29;;;;;;;27.50;10.98;;;;;;;;;;5021948;28;20033;-74
2021/10/15 08:50:58;;;;;;;28.67;11.88;;;;;;;;;;5021841;28;20029;-72
2021/10/15 08:53:24;;;;;;;28.92;10.80;;;;;;;;;;5020589;28;20669;-73
2021/10/15 08:55:49;;;;;;;20.48;8.93;;;;;;;;;;5026006;28;20033;-73
2021/10/15 08:58:15;;;;;;;19.85;8.70;;;;;;;;;;5023760;28;20048;-74
2021/10/15 09:00:41;;;;;;;38.60;18.17;;;;;;;;;;5021836;28;20430;-74
2021/10/15 09:03:12;;;;;;;28.02;9.02;;;;;;;;;;5025189;28;20037;-73
2021/10/15 09:05:50;;;;;;;16.42;7.28;;;;;;;;;;5019621;28;20044;-73
2021/10/15 09:08:15;;;;;;;19.70;8.73;;;;;;;;;;5021335;28;20030;-73
2021/10/15 09:10:41;;;;;;;14.80;6.75;;;;;;;;;;5024904;28;20033;-72
2021/10/15 09:13:26;;;;;;;19.42;9.48;;;;;;;;;;5025135;28;20446;-74
2021/10/15 09:15:59;;;;;;;18.30;7.50;;;;;;;;;;5022001;28;20128;-73
2021/10/15 09:18:30;;;;;;;17.95;6.10;;;;;;;;;;5020054;28;20061;-72
2021/10/15 09:21:14;;;;;;;17.67;6.75;;;;;;;;;;5024917;28;20029;-74
2021/10/15 09:23:47;;;;;;;17.92;6.40;;;;;;;;;;5026907;28;20504;-72
2021/10/15 09:26:13;;;;;;;13.93;6.18;;;;;;;;;;5022923;28;20041;-72
2021/10/15 09:28:41;;;;;;;13.98;5.80;;;;;;;;;;5025834;28;20052;-72
2021/10/15 09:31:07;;;;;;;11.77;5.15;;;;;;;;;;5022271;28;20068;-73
2021/10/15 09:33:33;;;;;;;16.77;5.22;;;;;;;;;;5023446;28;20116;-72
2021/10/15 09:36:06;;;;;;;13.00;5.72;;;;;;;;;;5022530;28;21051;-71
2021/10/15 09:38:32;;;;;;;20.85;5.75;;;;;;;;;;5024153;28;20044;-73
2021/10/15 09:40:58;;;;;;;13.02;5.15;;;;;;;;;;5038028;28;20152;-72
2021/10/15 09:43:35;;;;;;;10.63;5.15;;;;;;;;;;5023370;28;20687;-75
2021/10/15 09:46:02;;;;;;;13.48;4.85;;;;;;;;;;5018892;28;20037;-73
2021/10/15 09:48:38;;;;;;;11.77;4.97;;;;;;;;;;5022624;28;20022;-73
2021/10/15 09:52:14;;;;;;;12.85;5.63;;;;;;;;;;4990584;28;20037;-74
2021/10/15 09:55:12;;;;;;;11.18;5.20;;;;;;;;;;5011259;28;20124;-73
2021/10/15 09:57:40;;;;;;;11.43;4.75;;;;;;;;;;5021089;28;20112;-73
2021/10/15 10:00:15;;;;;;;9.50;4.30;;;;;;;;;;5021041;28;20029;-75
2021/10/15 10:02:46;;;;;;;15.52;5.30;;;;;;;;;;5018457;28;20473;-73
2021/10/15 10:05:15;;;;;;;10.73;4.60;;;;;;;;;;5019961;28;20116;-73
2021/10/15 10:07:48;;;;;;;9.57;3.75;;;;;;;;;;5021279;28;20030;-73
2021/10/15 10:10:17;;;;;;;13.85;4.15;;;;;;;;;;5018869;28;20041;-72
2021/10/15 10:12:47;;;;;;;27.98;5.30;;;;;;;;;;5017754;28;20034;-74
2021/10/15 10:15:15;;;;;;;10.95;4.57;;;;;;;;;;5019622;28;20070;-73
2021/10/15 10:18:11;;;;;;;10.23;5.10;;;;;;;;;;5018870;28;20148;-73
2021/10/15 10:20:40;;;;;;;8.63;4.20;;;;;;;;;;5018894;28;20045;-72
2021/10/15 10:23:16;;;;;;;8.38;4.05;;;;;;;;;;5025846;28;20039;-76
2021/10/15 10:25:42;;;;;;;9.30;4.40;;;;;;;;;;5022636;28;20036;-75
2021/10/15 10:28:27;;;;;;;11.70;4.68;;;;;;;;;;5022494;28;20048;-73
2021/10/15 10:30:55;;;;;;;12.75;6.28;;;;;;;;;;5021142;28;20195;-74
2021/10/15 10:33:23;;;;;;;10.60;4.50;;;;;;;;;;5020386;28;20756;-73
2021/10/15 10:35:50;;;;;;;11.60;4.68;;;;;;;;;;5018319;28;20116;-74
2021/10/15 10:38:26;;;;;;;10.88;3.55;;;;;;;;;;5019830;28;20033;-72
2021/10/15 10:41:00;;;;;;;10.18;4.45;;;;;;;;;;5019113;28;20045;-74
2021/10/15 10:43:45;;;;;;;7.47;4.18;;;;;;;;;;5022836;28;20030;-74
2021/10/15 10:46:21;;;;;;;8.85;3.40;;;;;;;;;;5016100;28;20025;-72
2021/10/15 10:48:46;;;;;;;8.82;4.10;;;;;;;;;;5021100;28;20033;-73
2021/10/15 10:51:16;;;;;;;8.90;3.70;;;;;;;;;;5023172;28;20067;-72
2021/10/15 10:54:20;;;;;;;10.63;4.30;;;;;;;;;;5022987;28;20030;-72
2021/10/15 10:56:50;;;;;;;11.98;4.32;;;;;;;;;;5017531;28;20204;-74
2021/10/15 10:59:21;;;;;;;13.85;3.95;;;;;;;;;;5021385;28;20033;-73
2021/10/15 11:02:04;;;;;;;8.55;4.18;;;;;;;;;;5022242;28;20519;-73
2021/10/15 11:04:32;;;;;;;10.85;3.92;;;;;;;;;;5015631;28;20079;-74
2021/10/15 11:07:03;;;;;;;10.35;3.63;;;;;;;;;;5017639;28;20037;-74
2021/10/15 11:09:31;;;;;;;12.60;4.47;;;;;;;;;;5014207;28;20878;-76
2021/10/15 11:11:57;;;;;;;9.13;3.78;;;;;;;;;;5018859;28;20075;-76
2021/10/15 11:14:47;;;;;;;10.82;4.00;;;;;;;;;;5021598;28;20049;-72
2021/10/15 11:17:14;;;;;;;10.88;4.03;;;;;;;;;;5015951;28;20033;-75
2021/10/15 11:19:40;;;;;;;10.35;4.25;;;;;;;;;;5019664;28;20032;-72
2021/10/15 11:22:06;;;;;;;10.15;5.80;;;;;;;;;;5020780;28;20033;-72
2021/10/15 11:24:31;;;;;;;7.63;4.10;;;;;;;;;;5019071;28;20044;-73
2021/10/15 11:26:57;;;;;;;10.48;4.15;;;;;;;;;;5019611;28;20468;-76
2021/10/15 11:29:23;;;;;;;7.65;4.05;;;;;;;;;;5016079;28;20053;-74
2021/10/15 11:31:57;;;;;;;12.75;4.30;;;;;;;;;;5035064;28;20545;-72
2021/10/15 11:34:23;;;;;;;9.57;5.07;;;;;;;;;;5021609;28;20032;-73
2021/10/15 11:37:04;;;;;;;12.13;4.10;;;;;;;;;;5019668;28;20485;-75
2021/10/15 11:39:31;;;;;;;16.23;4.85;;;;;;;;;;5018519;28;20470;-73
2021/10/15 11:41:57;;;;;;;14.63;4.78;;;;;;;;;;5022483;28;20045;-75
2021/10/15 11:44:36;;;;;;;11.15;4.40;;;;;;;;;;5020613;28;20034;-73
2021/10/15 11:47:02;;;;;;;9.50;4.20;;;;;;;;;;5020203;28;20021;-73
2021/10/15 11:49:38;;;;;;;14.27;4.90;;;;;;;;;;5018106;28;20037;-73
2021/10/15 11:52:05;;;;;;;15.10;5.10;;;;;;;;;;5005128;28;20043;-75
2021/10/15 11:54:30;;;;;;;9.82;3.70;;;;;;;;;;5021967;28;20037;-73
2021/10/15 11:56:56;;;;;;;8.43;3.00;;;;;;;;;;5023892;28;20044;-73
2021/10/15 11:59:25;;;;;;;9.88;3.78;;;;;;;;;;5022744;28;20039;-70
2021/10/15 12:01:51;;;;;;;6.43;3.20;;;;;;;;;;5022477;28;20048;-72
2021/10/15 12:04:16;;;;;;;8.65;3.08;;;;;;;;;;5023093;28;20033;-74
2021/10/15 12:06:45;;;;;;;6.20;3.13;;;;;;;;;;5020635;28;20130;-73
2021/10/15 12:09:21;;;;;;;9.38;3.40;;;;;;;;;;5023737;28;20052;-73
2021/10/15 12:11:55;;;;;;;5.03;2.53;;;;;;;;;;5023268;28;20111;-72
2021/10/15 12:14:28;;;;;;;8.98;2.97;;;;;;;;;;5024406;28;20072;-73
2021/10/15 12:17:00;;;;;;;10.57;3.05;;;;;;;;;;5028634;28;20075;-72
2021/10/15 12:19:37;;;;;;;4.97;2.90;;;;;;;;;;5038891;28;21602;-73
2021/10/15 12:22:09;;;;;;;4.93;3.35;;;;;;;;;;5025460;28;20061;-74
2021/10/15 12:24:47;;;;;;;5.30;2.88;;;;;;;;;;5020217;28;20037;-74
2021/10/15 12:27:12;;;;;;;6.53;2.90;;;;;;;;;;5021933;28;20040;-72
2021/10/15 12:29:59;;;;;;;5.32;2.95;;;;;;;;;;5017004;28;20049;-72
2021/10/15 12:32:34;;;;;;;5.53;3.13;;;;;;;;;;5018893;28;20832;-74
2021/10/15 12:35:16;;;;;;;4.45;2.88;;;;;;;;;;5020332;28;20051;-73
2021/10/15 12:37:56;;;;;;;6.40;3.13;;;;;;;;;;5018968;28;20499;-73
2021/10/15 12:40:33;;;;;;;5.40;3.53;;;;;;;;;;5021844;28;20021;-73
2021/10/15 12:43:15;;;;;;;8.15;3.65;;;;;;;;;;5018088;28;20354;-72
2021/10/15 12:45:50;;;;;;;6.03;3.20;;;;;;;;;;5021983;28;20040;-73
2021/10/15 12:48:16;;;;;;;10.18;4.05;;;;;;;;;;5021515;28;20025;-72
2021/10/15 12:50:55;;;;;;;7.93;3.60;;;;;;;;;;5017271;28;20038;-72
2021/10/15 12:53:21;;;;;;;6.75;3.60;;;;;;;;;;5017665;28;20041;-74
2021/10/15 12:55:55;;;;;;;8.75;3.20;;;;;;;;;;5019422;28;20041;-71
2021/10/15 12:58:30;;;;;;;4.95;2.90;;;;;;;;;;5022293;28;20667;-71
2021/10/15 13:00:58;;;;;;;6.13;2.95;;;;;;;;;;5025175;28;20028;-72
2021/10/15 13:03:25;;;;;;;7.93;2.88;;;;;;;;;;5025243;28;20025;-72
2021/10/15 13:05:56;;;;;;;10.32;3.47;;;;;;;;;;5023861;28;20043;-71
2021/10/15 13:08:22;;;;;;;;;;;;;;;;;;5022192;28;20037;-72
2021/10/15 13:10:48;;;;;;;7.60;3.67;;;;;;;;;;5017751;28;19921;-72
2021/10/15 13:13:16;;;;;;;5.38;3.13;;;;;;;;;;5020940;28;20033;-70
2021/10/15 13:15:43;;;;;;;5.50;2.80;;;;;;;;;;5020224;28;20064;-71
2021/10/15 13:18:12;;;;;;;7.47;2.53;;;;;;;;;;5019658;28;20455;-75
2021/10/15 13:20:39;;;;;;;7.20;3.05;;;;;;;;;;5013185;28;20397;-73
2021/10/15 13:23:05;;;;;;;7.20;2.83;;;;;;;;;;5024076;28;20035;-72
2021/10/15 13:25:32;;;;;;;7.45;2.95;;;;;;;;;;5027673;28;20029;-72
2021/10/15 13:28:00;;;;;;;4.15;2.50;;;;;;;;;;5029491;28;20400;-72
2021/10/15 13:30:27;;;;;;;7.15;2.92;;;;;;;;;;5024993;28;20040;-72
2021/10/15 13:32:58;;;;;;;5.93;3.00;;;;;;;;;;5022432;28;20768;-73
2021/10/15 13:35:27;;;;;;;3.40;2.17;;;;;;;;;;5020894;28;20064;-73
2021/10/15 13:40:20;;;;;;;4.50;2.75;;;;;;;;;;5016421;28;20025;-73
2021/10/15 13:45:45;;;;;;;4.60;2.67;;;;;;;;;;5023646;28;20084;-74
2021/10/15 13:51:03;;;;;;;4.63;2.63;;;;;;;;;;5021192;28;20037;-74
2021/10/15 13:53:33;;;;;;;6.78;3.17;;;;;;;;;;5019817;28;20098;-74
2021/10/15 13:56:05;;;;;;;5.47;2.92;;;;;;;;;;5021034;28;20041;-74
2021/10/15 13:58:38;;;;;;;4.95;2.50;;;;;;;;;;5022379;28;20848;-73
2021/10/15 14:01:53;;;;;;;6.80;3.17;;;;;;;;;;5021166;28;20049;-72
2021/10/15 14:06:25;;;;;;;4.50;2.58;;;;;;;;;;5021272;28;20034;-75
2021/10/15 14:08:51;;;;;;;8.32;2.95;;;;;;;;;;5017480;28;20029;-74
2021/10/15 14:11:18;;;;;;;7.45;3.30;;;;;;;;;;5014263;28;20034;-74
2021/10/15 14:13:44;;;;;;;5.15;3.35;;;;;;;;;;5018856;28;20032;-75
2021/10/15 14:16:09;;;;;;;5.45;3.05;;;;;;;;;;5018424;28;20030;-74
2021/10/15 14:18:34;;;;;;;4.55;2.80;;;;;;;;;;5023144;28;20041;-74
2021/10/15 14:21:01;;;;;;;5.28;3.28;;;;;;;;;;5017785;28;20188;-73
2021/10/15 14:23:27;;;;;;;7.05;2.80;;;;;;;;;;5016483;28;20511;-72
2021/10/15 14:25:53;;;;;;;11.68;7.07;;;;;;;;;;5025917;28;20033;-74
2021/10/15 14:28:19;;;;;;;4.18;2.75;;;;;;;;;;5028982;28;20045;-74
2021/10/15 14:30:45;;;;;;;5.10;2.55;;;;;;;;;;5028090;28;20032;-74
2021/10/15 14:33:11;;;;;;;5.35;2.92;;;;;;;;;;5028370;28;20120;-74
2021/10/15 14:35:37;;;;;;;9.63;3.33;;;;;;;;;;5015792;28;20026;-73
2021/10/15 14:38:03;;;;;;;9.48;3.60;;;;;;;;;;5024902;28;20055;-73
2021/10/15 14:40:29;;;;;;;5.85;3.33;;;;;;;;;;5031047;28;20040;-74
2021/10/15 14:42:55;;;;;;;4.90;3.08;;;;;;;;;;5028655;28;20048;-73
2021/10/15 14:45:21;;;;;;;7.32;2.58;;;;;;;;;;5025805;28;20481;-72
2021/10/15 14:47:46;;;;;;;10.82;4.78;;;;;;;;;;5054193;28;20029;-74
2021/10/15 14:50:14;;;;;;;8.93;3.72;;;;;;;;;;5028334;28;20032;-74
2021/10/15 14:52:39;;;;;;;8.20;2.67;;;;;;;;;;5028173;28;20730;-74
2021/10/15 14:55:05;;;;;;;8.55;2.83;;;;;;;;;;5028402;28;20029;-73
2021/10/15 14:57:31;;;;;;;6.47;3.20;;;;;;;;;;5028062;28;20032;-73